Time;durP1;ratioP1;P1;durP2;ratioP2;P2;SDS_P1;SDS_P2;PMS_P1;PMS_P2;Temp;Humidity;BMP_temperature;BMP_pressure;BME280_temperature;BME280_humidity;BME280_pressure;Samples;Min_cycle;Max_cycle;Signal;HPM_P1;HPM_P2
2021/01/11 00:01:24;;;;;;;11.18;8.88;;;3.60;99.90;;;;;;5012035;28;20079;-72
2021/01/11 00:03:50;;;;;;;10.18;7.85;;;3.60;99.90;;;;;;5013153;28;20497;-72
2021/01/11 00:06:16;;;;;;;12.02;8.25;;;3.60;99.90;;;;;;5010088;28;20030;-72
2021/01/11 00:08:42;;;;;;;10.50;8.18;;;3.50;99.90;;;;;;5013434;28;20075;-71
2021/01/11 00:11:08;;;;;;;10.27;8.35;;;3.60;99.90;;;;;;5012841;28;20030;-72
2021/01/11 00:13:34;;;;;;;9.48;7.30;;;3.60;99.90;;;;;;5011917;28;20025;-72
2021/01/11 00:15:59;;;;;;;32.55;9.90;;;3.60;99.90;;;;;;5010370;28;20037;-72
2021/01/11 00:18:25;;;;;;;12.05;8.45;;;3.50;99.90;;;;;;5010935;28;20040;-74
2021/01/11 00:20:51;;;;;;;9.30;8.07;;;3.50;99.90;;;;;;5013269;28;20029;-72
2021/01/11 00:23:17;;;;;;;13.93;8.00;;;3.50;99.90;;;;;;5011712;28;20018;-72
2021/01/11 00:25:43;;;;;;;7.85;7.03;;;3.50;99.90;;;;;;5011870;28;20412;-72
2021/01/11 00:28:09;;;;;;;10.00;7.70;;;3.50;99.90;;;;;;5012045;28;20077;-72
2021/01/11 00:30:35;;;;;;;9.43;7.82;;;3.50;99.90;;;;;;5012400;28;20624;-72
2021/01/11 00:33:01;;;;;;;12.20;7.30;;;3.50;99.90;;;;;;5013497;28;20033;-72
2021/01/11 00:35:27;;;;;;;9.93;7.60;;;3.50;99.90;;;;;;5015488;28;20056;-72
2021/01/11 00:37:52;;;;;;;11.32;7.47;;;3.50;99.90;;;;;;5016269;28;20099;-72
2021/01/11 00:40:18;;;;;;;7.45;5.53;;;3.50;99.90;;;;;;5016147;28;20029;-72
2021/01/11 00:42:44;;;;;;;10.48;7.80;;;3.50;99.90;;;;;;5014365;28;20079;-73
2021/01/11 00:45:10;;;;;;;11.27;7.53;;;3.50;99.90;;;;;;5013453;28;20037;-73
2021/01/11 00:47:38;;;;;;;9.55;8.02;;;3.50;99.90;;;;;;5015490;28;20018;-72
2021/01/11 00:50:05;;;;;;;8.80;7.85;;;3.40;99.90;;;;;;5015074;28;20508;-72
2021/01/11 00:52:36;;;;;;;8.68;7.75;;;3.40;99.90;;;;;;5015242;28;20041;-72
2021/01/11 00:55:07;;;;;;;8.93;7.53;;;3.40;99.90;;;;;;5013304;28;20462;-72
2021/01/11 00:57:33;;;;;;;9.40;7.10;;;3.30;99.90;;;;;;5015496;28;20029;-72
2021/01/11 00:59:59;;;;;;;9.80;7.18;;;3.30;99.90;;;;;;5016402;28;20089;-72
2021/01/11 01:02:26;;;;;;;8.20;6.78;;;3.40;99.90;;;;;;5014568;28;20104;-72
2021/01/11 01:04:52;;;;;;;8.52;7.25;;;3.40;99.90;;;;;;5013006;28;20112;-72
2021/01/11 01:07:18;;;;;;;10.20;6.88;;;3.40;99.90;;;;;;5015127;28;20057;-74
2021/01/11 01:09:44;;;;;;;8.95;6.93;;;3.30;99.90;;;;;;5016077;28;20068;-72
2021/01/11 01:12:10;;;;;;;9.45;7.65;;;3.50;99.90;;;;;;5014205;28;20033;-72
2021/01/11 01:14:36;;;;;;;9.52;7.13;;;3.40;99.90;;;;;;5013591;28;20029;-71
2021/01/11 01:17:01;;;;;;;12.38;7.60;;;3.40;99.90;;;;;;5014337;28;20053;-71
2021/01/11 01:19:27;;;;;;;8.20;6.68;;;3.40;99.90;;;;;;5015334;28;20053;-71
2021/01/11 01:21:53;;;;;;;11.35;8.68;;;3.20;99.90;;;;;;5015199;28;20081;-72
2021/01/11 01:24:19;;;;;;;8.07;7.28;;;3.20;99.90;;;;;;5015765;28;20018;-72
2021/01/11 01:26:45;;;;;;;9.10;6.70;;;3.20;99.90;;;;;;5013480;28;20034;-72
2021/01/11 01:29:10;;;;;;;9.55;6.50;;;3.40;99.90;;;;;;5012506;28;20029;-72
2021/01/11 01:31:36;;;;;;;8.48;6.88;;;3.30;99.90;;;;;;5014556;28;20040;-72
2021/01/11 01:34:02;;;;;;;5.97;4.93;;;3.30;99.90;;;;;;5013805;28;20490;-72
2021/01/11 01:36:28;;;;;;;8.43;6.57;;;3.30;99.90;;;;;;5011858;28;20418;-72
2021/01/11 01:38:54;;;;;;;8.98;5.82;;;3.20;99.90;;;;;;5015201;28;20030;-72
2021/01/11 01:41:20;;;;;;;8.85;6.70;;;3.30;99.90;;;;;;5014614;28;20122;-72
2021/01/11 01:43:46;;;;;;;9.88;7.15;;;3.30;99.90;;;;;;5013706;28;20029;-72
2021/01/11 01:46:19;;;;;;;6.25;5.05;;;3.30;99.90;;;;;;5012099;28;20029;-72
2021/01/11 01:48:45;;;;;;;12.10;6.38;;;3.30;99.90;;;;;;5011840;28;20034;-72
2021/01/11 01:51:11;;;;;;;9.00;6.97;;;3.30;99.90;;;;;;5014525;28;20030;-72
2021/01/11 01:53:38;;;;;;;10.85;6.22;;;3.30;99.90;;;;;;5007705;28;20026;-72
2021/01/11 01:56:05;;;;;;;7.30;6.05;;;3.30;99.90;;;;;;5013949;28;20030;-71
2021/01/11 01:58:32;;;;;;;9.73;6.97;;;3.30;99.90;;;;;;5012890;28;20030;-72
2021/01/11 02:00:58;;;;;;;10.57;6.30;;;3.30;99.90;;;;;;5014223;28;20056;-72
2021/01/11 02:03:24;;;;;;;9.30;7.13;;;3.30;99.90;;;;;;5013033;28;20116;-71
2021/01/11 02:05:50;;;;;;;7.85;6.38;;;3.20;99.90;;;;;;5014115;28;20057;-72
2021/01/11 02:08:39;;;;;;;6.65;5.13;;;3.20;99.90;;;;;;5014473;28;20021;-72
2021/01/11 02:11:26;;;;;;;10.60;6.25;;;3.20;99.90;;;;;;5011004;28;20034;-71
2021/01/11 02:14:37;;;;;;;5.05;4.55;;;3.20;99.90;;;;;;5013315;28;20064;-71
2021/01/11 02:17:23;;;;;;;7.18;5.93;;;3.20;99.90;;;;;;4959080;28;20035;-72
2021/01/11 02:20:14;;;;;;;7.40;5.80;;;3.20;99.90;;;;;;4945873;28;20041;-72
2021/01/11 02:23:25;;;;;;;7.57;6.15;;;3.20;99.90;;;;;;4996198;28;20042;-72
2021/01/11 02:26:08;;;;;;;8.38;6.35;;;3.20;99.90;;;;;;5012341;28;20030;-71
2021/01/11 02:29:01;;;;;;;5.35;4.53;;;3.20;99.90;;;;;;5013836;28;20034;-72
2021/01/11 02:31:28;;;;;;;7.65;5.75;;;3.10;99.90;;;;;;5010392;28;20552;-72
2021/01/11 02:33:56;;;;;;;10.85;7.10;;;3.10;99.90;;;;;;5010768;28;20030;-72
2021/01/11 02:36:23;;;;;;;8.30;6.78;;;3.10;99.90;;;;;;5013504;28;20026;-72
2021/01/11 02:38:50;;;;;;;7.60;5.45;;;3.10;99.90;;;;;;5012833;28;20032;-71
2021/01/11 02:41:17;;;;;;;6.25;5.60;;;3.10;99.90;;;;;;5012625;28;20489;-71
2021/01/11 02:43:42;;;;;;;6.22;5.63;;;3.00;99.90;;;;;;5013323;28;20026;-71
2021/01/11 02:46:09;;;;;;;9.50;5.88;;;3.00;99.90;;;;;;5013088;28;20026;-71
2021/01/11 02:48:43;;;;;;;9.80;7.13;;;3.00;99.90;;;;;;5012937;28;20037;-72
2021/01/11 02:51:30;;;;;;;7.35;5.95;;;3.00;99.90;;;;;;5003658;28;20034;-71
2021/01/11 02:54:05;;;;;;;7.75;6.93;;;3.00;99.90;;;;;;5011572;28;20026;-71
2021/01/11 02:56:48;;;;;;;8.68;6.25;;;3.00;99.90;;;;;;5012815;28;20091;-71
2021/01/11 02:59:20;;;;;;;7.70;6.15;;;3.00;99.90;;;;;;5007820;28;20113;-71
2021/01/11 03:01:55;;;;;;;7.60;6.82;;;3.00;99.90;;;;;;5013235;28;20026;-71
2021/01/11 03:04:23;;;;;;;6.38;5.68;;;3.00;99.90;;;;;;5012181;28;20026;-71
2021/01/11 03:07:01;;;;;;;5.65;5.13;;;3.00;99.90;;;;;;5013333;28;20025;-71
2021/01/11 03:09:29;;;;;;;7.18;5.55;;;3.00;99.90;;;;;;5012685;28;20474;-71
2021/01/11 03:11:56;;;;;;;8.98;6.18;;;3.00;99.90;;;;;;5012658;28;20105;-72
2021/01/11 03:14:22;;;;;;;7.40;5.43;;;2.90;99.90;;;;;;5012701;28;20056;-72
2021/01/11 03:16:48;;;;;;;7.20;5.45;;;3.00;99.90;;;;;;5012944;28;20494;-72
2021/01/11 03:19:17;;;;;;;8.32;6.57;;;3.00;99.90;;;;;;5013169;28;20110;-71
2021/01/11 03:21:43;;;;;;;6.60;5.20;;;3.00;99.90;;;;;;5014522;28;20064;-72
2021/01/11 03:24:09;;;;;;;7.03;5.35;;;3.10;99.90;;;;;;5014915;28;20026;-72
2021/01/11 03:26:39;;;;;;;7.53;6.13;;;3.10;99.90;;;;;;5012129;28;20428;-72
2021/01/11 03:29:04;;;;;;;4.75;4.20;;;3.10;99.90;;;;;;5013310;28;20037;-72
2021/01/11 03:31:31;;;;;;;9.20;6.20;;;3.10;99.90;;;;;;5011696;28;20030;-71
2021/01/11 03:33:56;;;;;;;9.88;6.63;;;3.00;99.90;;;;;;5012158;28;20045;-72
2021/01/11 03:36:22;;;;;;;8.05;5.90;;;3.00;99.90;;;;;;5012764;28;20030;-72
2021/01/11 03:38:48;;;;;;;5.97;5.30;;;3.10;99.90;;;;;;5012985;28;20030;-72
2021/01/11 03:41:15;;;;;;;8.45;6.38;;;3.10;99.90;;;;;;5011620;28;20489;-72
2021/01/11 03:43:43;;;;;;;7.70;5.95;;;3.10;99.90;;;;;;5012281;28;20038;-72
2021/01/11 03:46:12;;;;;;;8.45;6.97;;;3.10;99.90;;;;;;5007257;28;20072;-72
2021/01/11 03:48:38;;;;;;;7.00;5.68;;;3.10;99.90;;;;;;5011270;28;20022;-72
2021/01/11 03:51:04;;;;;;;6.97;6.00;;;3.10;99.90;;;;;;5013112;28;20030;-72
2021/01/11 03:53:30;;;;;;;5.82;5.22;;;3.10;99.90;;;;;;5012123;28;20048;-72
2021/01/11 03:55:56;;;;;;;6.63;5.93;;;3.00;99.90;;;;;;5011513;28;20026;-72
2021/01/11 03:58:22;;;;;;;10.25;6.90;;;3.00;99.90;;;;;;5010850;28;20084;-71
2021/01/11 04:00:49;;;;;;;10.65;7.30;;;3.00;99.90;;;;;;5012423;28;20037;-72
2021/01/11 04:03:15;;;;;;;8.10;6.35;;;2.90;99.90;;;;;;5012133;28;20100;-71
2021/01/11 04:05:48;;;;;;;9.02;6.40;;;2.90;99.90;;;;;;5013063;28;20489;-71
2021/01/11 04:08:17;;;;;;;9.48;7.18;;;3.00;99.90;;;;;;5002280;28;20049;-72
2021/01/11 04:10:42;;;;;;;8.18;6.82;;;2.90;99.90;;;;;;5014597;28;20068;-71
2021/01/11 04:13:08;;;;;;;9.02;6.13;;;2.90;99.90;;;;;;5016031;28;20470;-71
2021/01/11 04:15:35;;;;;;;7.97;6.65;;;3.00;99.90;;;;;;5016253;28;20050;-71
2021/01/11 04:18:01;;;;;;;6.53;5.93;;;3.00;99.90;;;;;;5017052;28;20476;-71
2021/01/11 04:20:28;;;;;;;9.30;6.38;;;3.00;99.90;;;;;;5013572;28;20024;-71
2021/01/11 04:22:54;;;;;;;7.20;5.60;;;2.90;99.90;;;;;;5016135;28;20405;-71
2021/01/11 04:25:22;;;;;;;8.18;6.40;;;2.90;99.90;;;;;;5015597;28;20021;-71
2021/01/11 04:27:48;;;;;;;8.40;6.75;;;2.90;99.90;;;;;;5016431;28;20058;-71
2021/01/11 04:30:14;;;;;;;6.32;4.75;;;3.00;99.90;;;;;;5015641;28;20057;-71
2021/01/11 04:32:40;;;;;;;8.60;6.70;;;2.90;99.90;;;;;;5015654;28;20482;-71
2021/01/11 04:35:07;;;;;;;9.93;7.35;;;2.90;99.90;;;;;;5016238;28;20026;-71
2021/01/11 04:37:33;;;;;;;5.85;5.15;;;2.90;99.90;;;;;;5016078;28;20056;-71
2021/01/11 04:39:59;;;;;;;6.45;5.80;;;2.90;99.90;;;;;;5015743;28;20033;-72
2021/01/11 04:42:41;;;;;;;11.02;6.68;;;3.00;99.90;;;;;;5016120;28;20022;-72
2021/01/11 04:45:08;;;;;;;6.60;5.68;;;3.00;99.90;;;;;;5014296;28;20105;-72
2021/01/11 04:47:35;;;;;;;11.32;6.72;;;3.00;99.90;;;;;;5015878;28;20030;-71
2021/01/11 04:50:03;;;;;;;7.07;6.00;;;3.00;99.90;;;;;;5013106;28;20029;-71
2021/01/11 04:52:31;;;;;;;9.10;6.10;;;3.00;99.90;;;;;;5011496;28;20054;-71
2021/01/11 04:55:01;;;;;;;9.65;7.07;;;2.90;99.90;;;;;;5014025;28;20022;-72
2021/01/11 04:57:33;;;;;;;9.00;6.18;;;3.00;99.90;;;;;;5010859;28;20033;-72
2021/01/11 05:00:07;;;;;;;7.22;5.95;;;3.00;99.90;;;;;;5014434;28;20021;-71
2021/01/11 05:02:42;;;;;;;12.30;7.07;;;3.10;99.90;;;;;;5013698;28;20038;-72
2021/01/11 05:05:09;;;;;;;8.52;7.25;;;3.00;99.90;;;;;;5010638;28;20024;-72
2021/01/11 05:07:35;;;;;;;7.57;6.70;;;2.90;99.90;;;;;;5015997;28;20461;-71
2021/01/11 05:10:00;;;;;;;10.00;6.82;;;3.00;99.90;;;;;;5011104;28;20018;-72
2021/01/11 05:12:27;;;;;;;19.52;7.63;;;3.00;99.90;;;;;;5016374;28;20037;-72
2021/01/11 05:15:15;;;;;;;9.63;6.47;;;3.00;99.90;;;;;;5014275;28;20382;-71
2021/01/11 05:17:45;;;;;;;9.80;7.28;;;3.10;99.90;;;;;;5015303;28;20105;-72
2021/01/11 05:20:13;;;;;;;9.77;6.78;;;3.10;99.90;;;;;;5013191;28;20215;-72
2021/01/11 05:22:40;;;;;;;9.70;6.90;;;3.10;99.90;;;;;;5015794;28;20426;-71
2021/01/11 05:25:13;;;;;;;10.82;7.00;;;3.00;99.90;;;;;;5014760;28;20017;-71
2021/01/11 05:27:39;;;;;;;9.52;6.93;;;3.00;99.90;;;;;;5014991;28;20055;-72
2021/01/11 05:30:08;;;;;;;9.00;5.88;;;3.00;99.90;;;;;;5015304;28;20026;-71
2021/01/11 05:32:34;;;;;;;9.70;7.18;;;3.00;99.90;;;;;;5014851;28;20061;-72
2021/01/11 05:35:01;;;;;;;8.10;6.55;;;2.90;99.90;;;;;;5013065;28;20037;-72
2021/01/11 05:37:35;;;;;;;7.85;6.13;;;2.90;99.90;;;;;;5014644;28;20573;-72
2021/01/11 05:40:05;;;;;;;11.90;7.22;;;3.00;99.90;;;;;;5012052;28;20030;-72
2021/01/11 05:42:31;;;;;;;8.80;5.65;;;2.90;99.90;;;;;;5014309;28;20022;-72
2021/01/11 05:45:11;;;;;;;10.48;7.90;;;2.90;99.90;;;;;;5014481;28;20660;-72
2021/01/11 05:48:06;;;;;;;9.57;5.72;;;2.90;99.90;;;;;;5013730;28;20512;-72
2021/01/11 05:50:40;;;;;;;11.82;8.70;;;2.90;99.90;;;;;;5012419;28;20030;-71
2021/01/11 05:53:20;;;;;;;8.85;6.32;;;2.90;99.90;;;;;;5014301;28;20378;-72
2021/01/11 05:55:47;;;;;;;8.90;8.00;;;2.90;99.90;;;;;;5014119;28;20108;-72
2021/01/11 05:58:14;;;;;;;5.97;5.07;;;2.90;99.90;;;;;;5013966;28;20022;-71
2021/01/11 06:00:41;;;;;;;10.90;7.50;;;2.90;99.90;;;;;;5012627;28;20054;-72
2021/01/11 06:03:09;;;;;;;9.30;7.28;;;2.90;99.90;;;;;;5007709;28;20076;-72
2021/01/11 06:05:36;;;;;;;6.20;5.60;;;2.90;99.90;;;;;;5014030;28;20030;-71
2021/01/11 06:08:04;;;;;;;7.10;5.32;;;2.90;99.90;;;;;;5014882;28;20096;-71
2021/01/11 06:10:30;;;;;;;6.43;5.20;;;2.90;99.90;;;;;;5013827;28;20030;-72
2021/01/11 06:12:56;;;;;;;8.95;7.15;;;2.90;99.90;;;;;;5013920;28;20052;-72
2021/01/11 06:15:27;;;;;;;7.32;6.60;;;2.90;99.90;;;;;;5012946;28;20478;-71
2021/01/11 06:17:57;;;;;;;9.70;5.65;;;2.80;99.90;;;;;;5014013;28;20034;-72
2021/01/11 06:20:28;;;;;;;11.98;7.80;;;2.80;99.90;;;;;;5010483;28;20022;-74
2021/01/11 06:22:54;;;;;;;9.35;5.88;;;2.80;99.90;;;;;;5012689;28;20022;-72
2021/01/11 06:25:22;;;;;;;7.10;5.47;;;2.80;99.90;;;;;;5008703;28;20540;-72
2021/01/11 06:27:59;;;;;;;10.40;6.07;;;2.80;99.90;;;;;;5012318;28;20026;-72
2021/01/11 06:30:44;;;;;;;6.70;5.03;;;2.80;99.90;;;;;;5012537;28;20621;-71
2021/01/11 06:33:13;;;;;;;10.77;6.80;;;2.80;99.90;;;;;;5007359;28;20105;-72
2021/01/11 06:35:47;;;;;;;10.55;6.38;;;2.80;99.90;;;;;;5010581;28;20026;-71
2021/01/11 06:38:20;;;;;;;7.40;5.80;;;2.80;99.90;;;;;;5006141;28;20025;-71
2021/01/11 06:40:54;;;;;;;7.25;6.47;;;2.80;99.90;;;;;;5012072;28;20034;-71
2021/01/11 06:43:23;;;;;;;6.55;5.78;;;2.80;99.90;;;;;;5011816;28;20053;-71
2021/01/11 06:45:50;;;;;;;9.98;6.63;;;2.80;99.90;;;;;;5014147;28;20052;-72
2021/01/11 06:48:19;;;;;;;7.18;6.00;;;2.80;99.90;;;;;;5010212;28;20045;-71
2021/01/11 06:50:49;;;;;;;6.00;5.25;;;2.70;99.90;;;;;;5003651;28;20025;-71
2021/01/11 06:53:29;;;;;;;9.77;6.38;;;2.70;99.90;;;;;;4994849;28;20035;-71
2021/01/11 06:56:10;;;;;;;9.77;6.45;;;2.70;99.90;;;;;;5005109;28;20498;-72
2021/01/11 06:58:40;;;;;;;6.93;5.72;;;2.80;99.90;;;;;;5013443;28;20466;-72
2021/01/11 07:01:11;;;;;;;8.60;6.90;;;2.80;99.90;;;;;;5012301;28;20014;-71
2021/01/11 07:03:48;;;;;;;9.20;7.13;;;2.80;99.90;;;;;;5012690;28;20022;-71
2021/01/11 07:06:31;;;;;;;7.15;6.38;;;2.70;99.90;;;;;;5003405;28;20022;-74
2021/01/11 07:09:18;;;;;;;9.95;7.25;;;2.70;99.90;;;;;;5006706;28;20029;-72
2021/01/11 07:11:45;;;;;;;8.35;6.82;;;2.70;99.90;;;;;;5001534;28;20053;-72
2021/01/11 07:14:13;;;;;;;8.13;6.07;;;2.70;99.90;;;;;;5003850;28;20030;-71
2021/01/11 07:16:50;;;;;;;10.85;8.48;;;2.70;99.90;;;;;;5006382;28;20120;-71
2021/01/11 07:19:36;;;;;;;6.18;4.90;;;2.80;99.90;;;;;;4997457;28;20109;-72
2021/01/11 07:22:04;;;;;;;12.15;7.05;;;2.80;99.90;;;;;;4999269;28;20044;-72
2021/01/11 07:24:32;;;;;;;11.45;7.78;;;2.80;99.90;;;;;;5002160;28;20026;-71
2021/01/11 07:26:58;;;;;;;8.65;6.72;;;2.80;99.90;;;;;;5009226;28;20025;-71
2021/01/11 07:29:24;;;;;;;8.45;7.20;;;2.80;99.90;;;;;;5020878;28;20099;-71
2021/01/11 07:31:51;;;;;;;10.02;7.07;;;2.80;99.90;;;;;;5007105;28;20077;-71
2021/01/11 07:34:18;;;;;;;6.53;5.70;;;2.70;99.90;;;;;;5005233;28;20425;-71
2021/01/11 07:36:55;;;;;;;8.77;7.85;;;2.70;99.90;;;;;;5010620;28;20081;-72
2021/01/11 07:39:27;;;;;;;11.23;7.35;;;2.80;99.90;;;;;;5012334;28;20177;-72
2021/01/11 07:42:01;;;;;;;7.68;5.95;;;2.80;99.90;;;;;;5013519;28;20022;-71
2021/01/11 07:44:34;;;;;;;11.75;7.07;;;2.80;99.90;;;;;;5012945;28;20152;-71
2021/01/11 07:47:03;;;;;;;10.18;7.07;;;2.80;99.90;;;;;;5015239;28;20029;-71
2021/01/11 07:49:35;;;;;;;9.75;8.07;;;2.80;99.90;;;;;;5017678;28;20022;-71
2021/01/11 07:52:10;;;;;;;7.47;6.68;;;2.80;99.90;;;;;;5020770;28;20038;-72
2021/01/11 07:54:37;;;;;;;9.40;7.60;;;2.80;99.90;;;;;;5013393;28;20036;-72
2021/01/11 07:57:08;;;;;;;9.93;7.85;;;2.80;99.90;;;;;;5011617;28;20503;-73
2021/01/11 07:59:33;;;;;;;6.95;6.10;;;2.80;99.90;;;;;;5007551;28;20037;-73
2021/01/11 08:02:02;;;;;;;12.57;8.77;;;2.80;99.90;;;;;;5011657;28;20030;-72
2021/01/11 08:04:37;;;;;;;11.18;6.13;;;2.80;99.90;;;;;;5011845;28;20073;-69
2021/01/11 08:07:11;;;;;;;9.98;6.80;;;2.80;99.90;;;;;;5011235;28;20477;-68
2021/01/11 08:09:39;;;;;;;7.90;6.47;;;2.90;99.90;;;;;;5008252;28;20101;-72
2021/01/11 08:12:05;;;;;;;6.85;5.85;;;2.90;99.90;;;;;;5009702;28;20034;-71
2021/01/11 08:14:31;;;;;;;9.85;7.50;;;2.80;99.90;;;;;;5010649;28;20033;-71
2021/01/11 08:16:58;;;;;;;11.35;8.15;;;2.90;99.90;;;;;;5010918;28;20022;-71
2021/01/11 08:19:24;;;;;;;8.82;7.82;;;2.90;99.90;;;;;;5006539;28;20186;-70
2021/01/11 08:22:01;;;;;;;10.02;7.38;;;2.90;99.90;;;;;;5008195;28;20061;-71
2021/01/11 08:24:27;;;;;;;15.70;9.23;;;2.90;99.90;;;;;;5008998;28;20026;-71
2021/01/11 08:27:14;;;;;;;10.00;7.80;;;2.90;99.90;;;;;;5012137;28;20021;-71
2021/01/11 08:29:42;;;;;;;9.07;8.00;;;3.00;99.90;;;;;;5009642;28;20112;-72
2021/01/11 08:32:16;;;;;;;11.55;8.43;;;3.00;99.90;;;;;;5008868;28;20040;-70
2021/01/11 08:34:43;;;;;;;13.93;8.02;;;3.00;99.90;;;;;;5011485;28;20382;-70
2021/01/11 08:37:25;;;;;;;8.18;6.25;;;3.00;99.90;;;;;;5010039;28;20026;-71
2021/01/11 08:39:59;;;;;;;11.63;7.90;;;3.10;99.90;;;;;;5008711;28;20073;-71
2021/01/11 08:42:27;;;;;;;9.07;7.57;;;3.10;99.90;;;;;;5008086;28;20580;-71
2021/01/11 08:44:53;;;;;;;8.27;6.80;;;3.20;99.90;;;;;;5010700;28;20057;-71
2021/01/11 08:47:28;;;;;;;10.57;8.27;;;3.20;99.90;;;;;;5010693;28;20048;-71
2021/01/11 08:50:04;;;;;;;12.50;8.55;;;3.20;99.90;;;;;;5008711;28;20033;-70
2021/01/11 08:52:32;;;;;;;9.00;7.47;;;3.20;99.90;;;;;;5011799;28;20062;-71
2021/01/11 08:55:14;;;;;;;9.55;7.10;;;3.30;99.90;;;;;;5015627;28;20029;-71
2021/01/11 08:57:41;;;;;;;10.20;8.70;;;3.30;99.90;;;;;;5015251;28;20038;-70
2021/01/11 09:00:11;;;;;;;14.70;8.55;;;3.30;99.90;;;;;;5007497;28;20101;-71
2021/01/11 09:02:45;;;;;;;10.07;7.07;;;3.30;99.90;;;;;;5007784;28;20018;-71
2021/01/11 09:05:24;;;;;;;14.82;9.80;;;3.30;99.90;;;;;;5011586;28;20394;-72
2021/01/11 09:07:51;;;;;;;9.95;8.20;;;3.40;99.90;;;;;;5014744;28;20026;-71
2021/01/11 09:10:23;;;;;;;8.93;7.45;;;3.50;99.90;;;;;;5014801;28;20030;-71
2021/01/11 09:12:49;;;;;;;;;;;3.60;99.90;;;;;;5011069;28;20555;-71
2021/01/11 09:15:28;;;;;;;10.65;7.65;;;3.60;99.90;;;;;;5014135;28;19921;-70
2021/01/11 09:18:02;;;;;;;11.10;8.77;;;3.70;99.90;;;;;;5012653;28;20026;-71
2021/01/11 09:20:28;;;;;;;12.13;8.55;;;3.80;99.90;;;;;;5015344;28;20018;-71
2021/01/11 09:22:57;;;;;;;9.40;7.40;;;3.90;99.90;;;;;;5013415;28;20032;-71
2021/01/11 09:25:23;;;;;;;15.25;7.22;;;3.90;99.90;;;;;;5014355;28;20052;-70
2021/01/11 09:27:50;;;;;;;8.57;6.82;;;3.90;99.90;;;;;;5012955;28;20037;-71
2021/01/11 09:30:16;;;;;;;10.57;7.75;;;4.00;99.90;;;;;;5011758;28;20030;-69
2021/01/11 09:32:45;;;;;;;12.73;9.00;;;4.10;99.90;;;;;;5011990;28;20048;-69
2021/01/11 09:35:13;;;;;;;11.10;9.00;;;4.20;99.90;;;;;;5011379;28;20025;-72
2021/01/11 09:37:39;;;;;;;11.80;8.35;;;4.40;99.90;;;;;;5013070;28;20028;-71
2021/01/11 09:40:05;;;;;;;11.07;7.65;;;4.30;99.90;;;;;;5014472;28;20041;-71
2021/01/11 09:42:31;;;;;;;12.00;9.23;;;4.30;99.90;;;;;;5013509;28;20033;-73
2021/01/11 09:44:57;;;;;;;9.23;7.57;;;4.40;99.90;;;;;;5013395;28;20030;-71
2021/01/11 09:47:23;;;;;;;11.23;7.72;;;4.50;99.90;;;;;;5011677;28;20035;-71
2021/01/11 09:49:50;;;;;;;11.57;9.00;;;4.30;99.90;;;;;;5014401;28;20026;-71
2021/01/11 09:52:15;;;;;;;14.35;9.00;;;4.30;99.90;;;;;;5013400;28;20504;-72
2021/01/11 09:54:42;;;;;;;17.38;8.18;;;4.40;99.90;;;;;;5014730;28;20038;-71
2021/01/11 09:57:10;;;;;;;11.95;7.80;;;4.50;99.90;;;;;;5011999;28;20022;-72
2021/01/11 09:59:37;;;;;;;8.00;6.80;;;4.50;99.90;;;;;;5014609;28;20026;-74
2021/01/11 10:02:03;;;;;;;7.80;6.82;;;4.50;99.90;;;;;;5013333;28;20604;-71
2021/01/11 10:04:29;;;;;;;10.55;7.55;;;4.40;99.90;;;;;;5013613;28;20072;-71
2021/01/11 10:06:56;;;;;;;8.20;6.30;;;4.20;99.90;;;;;;5013483;28;20041;-71
2021/01/11 10:09:25;;;;;;;9.13;6.28;;;4.30;99.90;;;;;;5013956;28;20106;-71
2021/01/11 10:11:56;;;;;;;9.07;6.15;;;4.30;99.90;;;;;;5012353;28;20045;-71
2021/01/11 10:14:22;;;;;;;11.00;7.82;;;4.40;99.90;;;;;;5013598;28;20093;-71
2021/01/11 10:16:51;;;;;;;11.55;9.20;;;4.40;99.90;;;;;;5012510;28;20029;-71
2021/01/11 10:19:22;;;;;;;10.10;6.95;;;4.50;99.90;;;;;;5012406;28;20032;-70
2021/01/11 10:21:49;;;;;;;7.90;5.90;;;4.70;99.90;;;;;;5012586;28;20029;-70
2021/01/11 10:24:16;;;;;;;8.00;7.05;;;4.60;99.90;;;;;;5013378;28;20115;-69
2021/01/11 10:26:47;;;;;;;8.90;6.72;;;4.60;99.90;;;;;;5012963;28;20034;-71
2021/01/11 10:29:15;;;;;;;8.18;5.93;;;4.60;99.90;;;;;;5012640;28;20398;-70
2021/01/11 10:31:41;;;;;;;8.75;6.95;;;4.80;99.90;;;;;;5011442;28;20497;-69
2021/01/11 10:34:08;;;;;;;10.13;7.47;;;4.80;99.90;;;;;;5009304;28;20033;-70
2021/01/11 10:36:41;;;;;;;11.00;8.18;;;4.90;99.90;;;;;;5013478;28;20060;-69
2021/01/11 10:39:08;;;;;;;13.90;8.45;;;5.10;99.90;;;;;;5012604;28;20032;-69
2021/01/11 10:41:33;;;;;;;6.43;5.60;;;5.50;99.90;;;;;;5006071;28;20368;-70
2021/01/11 10:44:00;;;;;;;10.07;7.15;;;5.10;99.90;;;;;;5013361;28;20026;-70
2021/01/11 10:46:26;;;;;;;11.90;6.30;;;5.10;99.90;;;;;;5012284;28;20038;-69
2021/01/11 10:48:53;;;;;;;9.25;6.22;;;5.20;99.90;;;;;;5012279;28;20057;-69
2021/01/11 10:51:22;;;;;;;11.57;8.65;;;5.10;99.90;;;;;;5014087;28;20072;-69
2021/01/11 10:53:50;;;;;;;9.52;5.95;;;5.40;99.90;;;;;;5012122;28;20034;-69
2021/01/11 10:56:16;;;;;;;6.60;4.65;;;5.30;99.90;;;;;;5013626;28;20060;-70
2021/01/11 10:58:42;;;;;;;12.80;7.03;;;5.30;99.90;;;;;;5011241;28;20029;-72
2021/01/11 11:01:14;;;;;;;11.85;7.60;;;5.20;99.90;;;;;;5009313;28;20133;-73
2021/01/11 11:03:41;;;;;;;6.00;4.93;;;5.10;99.90;;;;;;5013402;28;20085;-70
2021/01/11 11:06:07;;;;;;;7.88;5.97;;;4.80;99.90;;;;;;5011641;28;20545;-69
2021/01/11 11:08:34;;;;;;;9.02;6.88;;;4.90;99.90;;;;;;5012882;28;20441;-70
2021/01/11 11:11:00;;;;;;;7.70;6.20;;;5.00;99.90;;;;;;5013044;28;20115;-69
2021/01/11 11:13:26;;;;;;;8.45;6.55;;;4.90;99.90;;;;;;5013514;28;20497;-69
2021/01/11 11:15:54;;;;;;;9.13;7.13;;;4.90;99.90;;;;;;5010550;28;20037;-70
2021/01/11 11:18:20;;;;;;;8.52;6.57;;;5.00;99.90;;;;;;5012633;28;20034;-70
2021/01/11 11:20:47;;;;;;;6.72;5.65;;;5.00;99.90;;;;;;5013466;28;20520;-71
2021/01/11 11:23:13;;;;;;;12.45;7.22;;;5.00;99.90;;;;;;5011445;28;20458;-68
2021/01/11 11:25:43;;;;;;;7.07;5.35;;;5.20;99.90;;;;;;5012946;28;20025;-71
2021/01/11 11:28:09;;;;;;;8.35;6.80;;;5.20;99.90;;;;;;5010949;28;20025;-70
2021/01/11 11:30:35;;;;;;;8.85;6.00;;;5.10;99.90;;;;;;5011965;28;20026;-70
2021/01/11 11:33:01;;;;;;;8.02;5.30;;;5.20;99.90;;;;;;5012785;28;20026;-70
2021/01/11 11:35:27;;;;;;;9.30;6.50;;;5.00;99.90;;;;;;5011955;28;20037;-70
2021/01/11 11:37:52;;;;;;;6.82;5.25;;;5.00;99.90;;;;;;5010386;28;20044;-70
2021/01/11 11:40:19;;;;;;;9.25;6.35;;;5.10;99.90;;;;;;5009199;28;20046;-70
2021/01/11 11:42:45;;;;;;;7.85;6.00;;;5.10;99.90;;;;;;5011052;28;20022;-71
2021/01/11 11:45:13;;;;;;;4.15;3.72;;;5.00;99.90;;;;;;5010966;28;20021;-71
2021/01/11 11:47:39;;;;;;;9.38;6.63;;;5.10;99.90;;;;;;5011581;28;20037;-70
2021/01/11 11:50:08;;;;;;;7.65;5.95;;;5.20;99.90;;;;;;5012560;28;20397;-70
2021/01/11 11:52:35;;;;;;;7.40;5.82;;;5.20;99.90;;;;;;5012434;28;20041;-70
2021/01/11 11:55:02;;;;;;;8.80;6.72;;;5.30;99.90;;;;;;5012284;28;20024;-71
2021/01/11 11:57:28;;;;;;;7.78;6.05;;;5.10;99.90;;;;;;5009906;28;20025;-71
2021/01/11 11:59:54;;;;;;;8.38;5.25;;;5.10;99.90;;;;;;5011121;28;20478;-70
2021/01/11 12:02:20;;;;;;;6.80;5.65;;;5.10;99.90;;;;;;5012581;28;20055;-69
2021/01/11 12:04:46;;;;;;;9.57;7.70;;;5.00;99.90;;;;;;5012850;28;20021;-70
2021/01/11 12:07:16;;;;;;;4.57;4.15;;;5.10;99.90;;;;;;5010939;28;20022;-70
2021/01/11 12:09:42;;;;;;;7.88;5.20;;;5.10;99.90;;;;;;5011129;28;20084;-70
2021/01/11 12:12:14;;;;;;;6.22;5.13;;;5.20;99.90;;;;;;5011814;28;20022;-71
2021/01/11 12:14:40;;;;;;;;;;;5.20;99.90;;;;;;5012539;28;20388;-70
2021/01/11 12:17:07;;;;;;;5.82;5.05;;;5.10;99.90;;;;;;5012191;28;19909;-74
2021/01/11 12:19:33;;;;;;;5.95;5.30;;;5.10;99.90;;;;;;5011790;28;20108;-70
2021/01/11 12:21:59;;;;;;;8.52;5.72;;;5.00;99.90;;;;;;5013284;28;20443;-70
2021/01/11 12:24:25;;;;;;;7.75;6.22;;;5.00;99.90;;;;;;5011786;28;20030;-70
2021/01/11 12:26:53;;;;;;;10.07;5.68;;;5.10;99.90;;;;;;5011231;28;20045;-72
2021/01/11 12:29:21;;;;;;;6.28;4.53;;;5.30;99.90;;;;;;5012078;28;20022;-71
2021/01/11 12:31:49;;;;;;;6.72;4.93;;;5.30;99.90;;;;;;5013879;28;20037;-70
2021/01/11 12:34:15;;;;;;;5.95;4.68;;;5.20;99.90;;;;;;5016733;28;20053;-70
2021/01/11 12:36:41;;;;;;;7.85;5.88;;;5.20;99.90;;;;;;5014541;28;20449;-70
2021/01/11 12:39:10;;;;;;;10.75;6.28;;;5.20;99.90;;;;;;5009941;28;20433;-70
2021/01/11 12:41:38;;;;;;;7.03;6.03;;;5.20;99.90;;;;;;5015840;28;20053;-72
2021/01/11 12:44:10;;;;;;;8.93;6.57;;;5.10;99.90;;;;;;5014760;28;20097;-70
2021/01/11 12:46:37;;;;;;;;;;;5.10;99.90;;;;;;5013826;28;20080;-68
2021/01/11 12:49:05;;;;;;;6.45;4.57;;;5.00;99.90;;;;;;5014265;28;20431;-69
2021/01/11 12:51:31;;;;;;;5.50;4.95;;;5.00;99.90;;;;;;5016089;28;20487;-69
2021/01/11 12:53:57;;;;;;;10.82;7.15;;;4.80;99.90;;;;;;5015204;28;20030;-70
2021/01/11 12:56:25;;;;;;;5.15;4.28;;;4.90;99.90;;;;;;5015707;28;20022;-69
2021/01/11 12:58:55;;;;;;;8.55;6.22;;;4.90;99.90;;;;;;5013582;28;20073;-69
2021/01/11 13:01:33;;;;;;;7.15;6.25;;;4.90;99.90;;;;;;5015259;28;20053;-69
2021/01/11 13:04:01;;;;;;;7.25;5.35;;;4.80;99.90;;;;;;5014166;28;20026;-69
2021/01/11 13:06:32;;;;;;;6.85;5.80;;;5.00;99.90;;;;;;5015023;28;20132;-69